sensor_id;sensor_type;location;lat;lon;timestamp;P1;durP1;ratioP1;P2;durP2;ratioP2
15216;SDS011;7711;46.634;14.318;2023-08-24T00:01:23;17.85;;;14.38;;
15216;SDS011;7711;46.634;14.318;2023-08-24T00:03:52;17.08;;;15.40;;
15216;SDS011;7711;46.634;14.318;2023-08-24T00:06:19;18.88;;;15.75;;
15216;SDS011;7711;46.634;14.318;2023-08-24T00:08:46;18.25;;;15.48;;
15216;SDS011;7711;46.634;14.318;2023-08-24T00:11:13;18.05;;;15.70;;
15216;SDS011;7711;46.634;14.318;2023-08-24T00:13:41;17.48;;;15.45;;
15216;SDS011;7711;46.634;14.318;2023-08-24T00:16:11;18.50;;;16.23;;
15216;SDS011;7711;46.634;14.318;2023-08-24T00:18:38;17.27;;;15.50;;
15216;SDS011;7711;46.634;14.318;2023-08-24T00:21:07;16.50;;;14.80;;
15216;SDS011;7711;46.634;14.318;2023-08-24T00:23:34;17.05;;;15.20;;
15216;SDS011;7711;46.634;14.318;2023-08-24T00:26:01;17.88;;;16.00;;
15216;SDS011;7711;46.634;14.318;2023-08-24T00:28:28;16.80;;;14.52;;
15216;SDS011;7711;46.634;14.318;2023-08-24T00:30:55;16.65;;;14.88;;
15216;SDS011;7711;46.634;14.318;2023-08-24T00:33:22;20.17;;;15.00;;
15216;SDS011;7711;46.634;14.318;2023-08-24T00:35:49;19.30;;;15.27;;
15216;SDS011;7711;46.634;14.318;2023-08-24T00:38:17;16.00;;;14.30;;
15216;SDS011;7711;46.634;14.318;2023-08-24T00:40:44;15.55;;;13.95;;
15216;SDS011;7711;46.634;14.318;2023-08-24T00:43:13;19.42;;;15.30;;
15216;SDS011;7711;46.634;14.318;2023-08-24T00:45:40;16.10;;;14.45;;
15216;SDS011;7711;46.634;14.318;2023-08-24T00:48:07;15.73;;;14.25;;
15216;SDS011;7711;46.634;14.318;2023-08-24T00:50:34;19.60;;;14.90;;
15216;SDS011;7711;46.634;14.318;2023-08-24T00:53:01;17.35;;;15.32;;
15216;SDS011;7711;46.634;14.318;2023-08-24T00:55:30;16.45;;;14.75;;
15216;SDS011;7711;46.634;14.318;2023-08-24T00:57:58;17.38;;;14.80;;
15216;SDS011;7711;46.634;14.318;2023-08-24T01:00:25;15.88;;;14.38;;
15216;SDS011;7711;46.634;14.318;2023-08-24T01:02:53;16.38;;;13.98;;
15216;SDS011;7711;46.634;14.318;2023-08-24T01:05:20;19.60;;;14.52;;
15216;SDS011;7711;46.634;14.318;2023-08-24T01:07:47;15.45;;;13.95;;
15216;SDS011;7711;46.634;14.318;2023-08-24T01:10:14;16.08;;;14.40;;
15216;SDS011;7711;46.634;14.318;2023-08-24T01:12:50;15.10;;;13.60;;
15216;SDS011;7711;46.634;14.318;2023-08-24T01:15:29;16.10;;;14.35;;
15216;SDS011;7711;46.634;14.318;2023-08-24T01:18:04;16.88;;;13.65;;
15216;SDS011;7711;46.634;14.318;2023-08-24T01:20:32;14.18;;;12.77;;
15216;SDS011;7711;46.634;14.318;2023-08-24T01:23:04;16.23;;;13.90;;
15216;SDS011;7711;46.634;14.318;2023-08-24T01:25:40;15.85;;;14.18;;
15216;SDS011;7711;46.634;14.318;2023-08-24T01:28:20;16.02;;;14.30;;
15216;SDS011;7711;46.634;14.318;2023-08-24T01:30:49;16.27;;;13.95;;
15216;SDS011;7711;46.634;14.318;2023-08-24T01:33:16;17.75;;;14.77;;
15216;SDS011;7711;46.634;14.318;2023-08-24T01:35:43;16.45;;;14.85;;
15216;SDS011;7711;46.634;14.318;2023-08-24T01:38:10;15.35;;;13.80;;
15216;SDS011;7711;46.634;14.318;2023-08-24T01:40:40;17.83;;;14.63;;
15216;SDS011;7711;46.634;14.318;2023-08-24T01:43:17;14.63;;;13.13;;
15216;SDS011;7711;46.634;14.318;2023-08-24T01:45:48;15.95;;;14.35;;
15216;SDS011;7711;46.634;14.318;2023-08-24T01:48:16;15.85;;;14.25;;
15216;SDS011;7711;46.634;14.318;2023-08-24T01:50:43;15.75;;;14.13;;
15216;SDS011;7711;46.634;14.318;2023-08-24T01:53:11;16.55;;;14.02;;
15216;SDS011;7711;46.634;14.318;2023-08-24T01:55:38;16.08;;;14.50;;
15216;SDS011;7711;46.634;14.318;2023-08-24T01:58:08;19.55;;;14.63;;
15216;SDS011;7711;46.634;14.318;2023-08-24T02:00:35;20.65;;;15.10;;
15216;SDS011;7711;46.634;14.318;2023-08-24T02:03:04;17.02;;;15.05;;
15216;SDS011;7711;46.634;14.318;2023-08-24T02:05:31;15.25;;;13.75;;
15216;SDS011;7711;46.634;14.318;2023-08-24T02:07:58;15.38;;;13.43;;
15216;SDS011;7711;46.634;14.318;2023-08-24T02:10:25;16.67;;;14.18;;
15216;SDS011;7711;46.634;14.318;2023-08-24T02:12:52;15.73;;;14.07;;
15216;SDS011;7711;46.634;14.318;2023-08-24T02:15:19;15.10;;;13.50;;
15216;SDS011;7711;46.634;14.318;2023-08-24T02:17:46;15.77;;;13.93;;
15216;SDS011;7711;46.634;14.318;2023-08-24T02:20:14;16.85;;;13.52;;
15216;SDS011;7711;46.634;14.318;2023-08-24T02:22:42;15.98;;;14.05;;
15216;SDS011;7711;46.634;14.318;2023-08-24T02:25:09;18.13;;;14.48;;
15216;SDS011;7711;46.634;14.318;2023-08-24T02:27:36;17.42;;;15.50;;
15216;SDS011;7711;46.634;14.318;2023-08-24T02:30:03;16.00;;;14.30;;
15216;SDS011;7711;46.634;14.318;2023-08-24T02:32:31;16.75;;;13.52;;
15216;SDS011;7711;46.634;14.318;2023-08-24T02:34:58;15.68;;;13.55;;
15216;SDS011;7711;46.634;14.318;2023-08-24T02:37:26;15.60;;;14.00;;
15216;SDS011;7711;46.634;14.318;2023-08-24T02:39:53;16.63;;;14.18;;
15216;SDS011;7711;46.634;14.318;2023-08-24T02:42:20;16.10;;;14.30;;
15216;SDS011;7711;46.634;14.318;2023-08-24T02:44:47;16.23;;;14.63;;
15216;SDS011;7711;46.634;14.318;2023-08-24T02:47:14;16.40;;;14.70;;
15216;SDS011;7711;46.634;14.318;2023-08-24T02:49:41;16.23;;;14.52;;
15216;SDS011;7711;46.634;14.318;2023-08-24T02:52:09;17.50;;;14.65;;
15216;SDS011;7711;46.634;14.318;2023-08-24T02:54:38;16.52;;;14.75;;
15216;SDS011;7711;46.634;14.318;2023-08-24T02:57:05;17.23;;;15.30;;
15216;SDS011;7711;46.634;14.318;2023-08-24T02:59:32;18.02;;;15.45;;
15216;SDS011;7711;46.634;14.318;2023-08-24T03:01:59;19.23;;;15.00;;
15216;SDS011;7711;46.634;14.318;2023-08-24T03:04:26;16.42;;;14.82;;
15216;SDS011;7711;46.634;14.318;2023-08-24T03:06:53;16.92;;;15.10;;
15216;SDS011;7711;46.634;14.318;2023-08-24T03:09:20;16.00;;;14.45;;
15216;SDS011;7711;46.634;14.318;2023-08-24T03:11:49;17.67;;;14.50;;
15216;SDS011;7711;46.634;14.318;2023-08-24T03:14:16;16.40;;;14.68;;
15216;SDS011;7711;46.634;14.318;2023-08-24T03:16:43;17.20;;;15.00;;
15216;SDS011;7711;46.634;14.318;2023-08-24T03:19:10;17.63;;;14.80;;
15216;SDS011;7711;46.634;14.318;2023-08-24T03:21:39;18.02;;;16.00;;
15216;SDS011;7711;46.634;14.318;2023-08-24T03:24:06;17.52;;;15.68;;
15216;SDS011;7711;46.634;14.318;2023-08-24T03:26:33;18.75;;;16.92;;
15216;SDS011;7711;46.634;14.318;2023-08-24T03:29:02;20.08;;;16.65;;
15216;SDS011;7711;46.634;14.318;2023-08-24T03:31:29;17.63;;;14.77;;
15216;SDS011;7711;46.634;14.318;2023-08-24T03:33:56;15.77;;;13.75;;
15216;SDS011;7711;46.634;14.318;2023-08-24T03:36:23;17.83;;;15.00;;
15216;SDS011;7711;46.634;14.318;2023-08-24T03:38:50;17.90;;;16.05;;
15216;SDS011;7711;46.634;14.318;2023-08-24T03:41:17;19.95;;;17.58;;
15216;SDS011;7711;46.634;14.318;2023-08-24T03:43:44;18.80;;;16.90;;
15216;SDS011;7711;46.634;14.318;2023-08-24T03:46:12;17.98;;;16.20;;
15216;SDS011;7711;46.634;14.318;2023-08-24T03:48:39;18.67;;;16.42;;
15216;SDS011;7711;46.634;14.318;2023-08-24T03:51:06;19.25;;;17.23;;
15216;SDS011;7711;46.634;14.318;2023-08-24T03:53:33;18.20;;;16.33;;
15216;SDS011;7711;46.634;14.318;2023-08-24T03:56:00;21.00;;;16.63;;
15216;SDS011;7711;46.634;14.318;2023-08-24T03:58:27;21.00;;;16.95;;
15216;SDS011;7711;46.634;14.318;2023-08-24T04:00:54;20.08;;;16.88;;
15216;SDS011;7711;46.634;14.318;2023-08-24T04:03:23;20.60;;;18.08;;
15216;SDS011;7711;46.634;14.318;2023-08-24T04:05:50;19.10;;;17.08;;
15216;SDS011;7711;46.634;14.318;2023-08-24T04:08:17;18.38;;;16.17;;
15216;SDS011;7711;46.634;14.318;2023-08-24T04:10:44;19.35;;;17.30;;
15216;SDS011;7711;46.634;14.318;2023-08-24T04:13:11;20.85;;;16.08;;
15216;SDS011;7711;46.634;14.318;2023-08-24T04:15:38;19.25;;;17.23;;
15216;SDS011;7711;46.634;14.318;2023-08-24T04:18:05;18.35;;;16.42;;
15216;SDS011;7711;46.634;14.318;2023-08-24T04:20:33;21.77;;;16.95;;
15216;SDS011;7711;46.634;14.318;2023-08-24T04:23:01;21.13;;;18.85;;
15216;SDS011;7711;46.634;14.318;2023-08-24T04:25:28;21.45;;;18.40;;
15216;SDS011;7711;46.634;14.318;2023-08-24T04:27:55;21.30;;;17.23;;
15216;SDS011;7711;46.634;14.318;2023-08-24T04:30:22;20.58;;;18.30;;
15216;SDS011;7711;46.634;14.318;2023-08-24T04:32:49;21.30;;;19.00;;
15216;SDS011;7711;46.634;14.318;2023-08-24T04:35:17;21.17;;;17.98;;
15216;SDS011;7711;46.634;14.318;2023-08-24T04:37:45;18.83;;;16.80;;
15216;SDS011;7711;46.634;14.318;2023-08-24T04:40:12;19.45;;;17.45;;
15216;SDS011;7711;46.634;14.318;2023-08-24T04:42:39;18.42;;;16.52;;
15216;SDS011;7711;46.634;14.318;2023-08-24T04:45:06;18.38;;;16.50;;
15216;SDS011;7711;46.634;14.318;2023-08-24T04:47:34;21.85;;;17.17;;
15216;SDS011;7711;46.634;14.318;2023-08-24T04:50:01;21.08;;;16.92;;
15216;SDS011;7711;46.634;14.318;2023-08-24T04:52:33;18.15;;;15.85;;
15216;SDS011;7711;46.634;14.318;2023-08-24T04:55:02;21.77;;;17.65;;
15216;SDS011;7711;46.634;14.318;2023-08-24T04:57:29;19.33;;;17.25;;
15216;SDS011;7711;46.634;14.318;2023-08-24T04:59:56;18.77;;;16.88;;
15216;SDS011;7711;46.634;14.318;2023-08-24T05:02:23;19.10;;;17.05;;
15216;SDS011;7711;46.634;14.318;2023-08-24T05:04:50;19.25;;;17.05;;
15216;SDS011;7711;46.634;14.318;2023-08-24T05:07:20;20.63;;;16.33;;
15216;SDS011;7711;46.634;14.318;2023-08-24T05:09:47;22.00;;;15.77;;
15216;SDS011;7711;46.634;14.318;2023-08-24T05:12:15;17.92;;;16.17;;
15216;SDS011;7711;46.634;14.318;2023-08-24T05:14:42;16.20;;;14.60;;
15216;SDS011;7711;46.634;14.318;2023-08-24T05:17:09;14.90;;;13.48;;
15216;SDS011;7711;46.634;14.318;2023-08-24T05:19:37;15.13;;;13.63;;
15216;SDS011;7711;46.634;14.318;2023-08-24T05:22:03;15.40;;;13.60;;
15216;SDS011;7711;46.634;14.318;2023-08-24T05:24:30;14.82;;;13.38;;
15216;SDS011;7711;46.634;14.318;2023-08-24T05:26:57;14.82;;;13.43;;
15216;SDS011;7711;46.634;14.318;2023-08-24T05:29:26;16.25;;;13.52;;
15216;SDS011;7711;46.634;14.318;2023-08-24T05:31:53;15.07;;;12.98;;
15216;SDS011;7711;46.634;14.318;2023-08-24T05:34:20;14.50;;;13.02;;
15216;SDS011;7711;46.634;14.318;2023-08-24T05:36:47;13.55;;;12.23;;
15216;SDS011;7711;46.634;14.318;2023-08-24T05:39:13;14.68;;;13.07;;
15216;SDS011;7711;46.634;14.318;2023-08-24T05:41:39;13.38;;;12.07;;
15216;SDS011;7711;46.634;14.318;2023-08-24T05:44:06;13.68;;;12.20;;
15216;SDS011;7711;46.634;14.318;2023-08-24T05:46:35;13.73;;;12.32;;
15216;SDS011;7711;46.634;14.318;2023-08-24T05:49:02;13.60;;;12.27;;
15216;SDS011;7711;46.634;14.318;2023-08-24T05:51:29;13.95;;;11.80;;
15216;SDS011;7711;46.634;14.318;2023-08-24T05:53:56;12.18;;;11.07;;
15216;SDS011;7711;46.634;14.318;2023-08-24T05:56:23;15.13;;;11.90;;
15216;SDS011;7711;46.634;14.318;2023-08-24T05:58:50;13.95;;;12.20;;
15216;SDS011;7711;46.634;14.318;2023-08-24T06:01:17;14.25;;;11.65;;
15216;SDS011;7711;46.634;14.318;2023-08-24T06:03:46;16.08;;;11.95;;
15216;SDS011;7711;46.634;14.318;2023-08-24T06:06:13;15.48;;;10.90;;
15216;SDS011;7711;46.634;14.318;2023-08-24T06:08:40;14.25;;;11.20;;
15216;SDS011;7711;46.634;14.318;2023-08-24T06:11:07;12.88;;;11.55;;
15216;SDS011;7711;46.634;14.318;2023-08-24T06:13:34;13.00;;;11.60;;
15216;SDS011;7711;46.634;14.318;2023-08-24T06:16:01;12.48;;;11.23;;
15216;SDS011;7711;46.634;14.318;2023-08-24T06:18:28;12.98;;;11.57;;
15216;SDS011;7711;46.634;14.318;2023-08-24T06:20:56;13.82;;;12.25;;
15216;SDS011;7711;46.634;14.318;2023-08-24T06:23:23;13.75;;;11.82;;
15216;SDS011;7711;46.634;14.318;2023-08-24T06:25:51;13.40;;;11.48;;
15216;SDS011;7711;46.634;14.318;2023-08-24T06:28:17;12.85;;;11.50;;
15216;SDS011;7711;46.634;14.318;2023-08-24T06:30:44;13.30;;;11.98;;
15216;SDS011;7711;46.634;14.318;2023-08-24T06:33:13;15.45;;;12.25;;
15216;SDS011;7711;46.634;14.318;2023-08-24T06:35:40;16.23;;;12.05;;
15216;SDS011;7711;46.634;14.318;2023-08-24T06:38:08;14.73;;;12.85;;
15216;SDS011;7711;46.634;14.318;2023-08-24T06:40:35;14.95;;;13.10;;
15216;SDS011;7711;46.634;14.318;2023-08-24T06:43:02;15.70;;;12.65;;
15216;SDS011;7711;46.634;14.318;2023-08-24T06:45:30;14.05;;;12.65;;
15216;SDS011;7711;46.634;14.318;2023-08-24T06:47:57;14.10;;;12.70;;
15216;SDS011;7711;46.634;14.318;2023-08-24T06:50:24;13.82;;;12.38;;
15216;SDS011;7711;46.634;14.318;2023-08-24T06:52:51;14.38;;;11.93;;
15216;SDS011;7711;46.634;14.318;2023-08-24T06:55:19;14.20;;;12.02;;
15216;SDS011;7711;46.634;14.318;2023-08-24T06:57:47;13.85;;;12.43;;
15216;SDS011;7711;46.634;14.318;2023-08-24T07:00:15;13.55;;;12.25;;
15216;SDS011;7711;46.634;14.318;2023-08-24T07:02:42;13.93;;;11.70;;
15216;SDS011;7711;46.634;14.318;2023-08-24T07:05:09;12.27;;;10.48;;
15216;SDS011;7711;46.634;14.318;2023-08-24T07:07:37;13.75;;;12.10;;
15216;SDS011;7711;46.634;14.318;2023-08-24T07:10:05;15.77;;;12.90;;
15216;SDS011;7711;46.634;14.318;2023-08-24T07:12:34;14.68;;;12.52;;
15216;SDS011;7711;46.634;14.318;2023-08-24T07:15:01;14.02;;;12.50;;
15216;SDS011;7711;46.634;14.318;2023-08-24T07:17:29;23.67;;;13.23;;
15216;SDS011;7711;46.634;14.318;2023-08-24T07:19:56;13.68;;;12.35;;
15216;SDS011;7711;46.634;14.318;2023-08-24T07:22:23;14.65;;;12.73;;
15216;SDS011;7711;46.634;14.318;2023-08-24T07:24:51;15.57;;;12.77;;
15216;SDS011;7711;46.634;14.318;2023-08-24T07:27:18;13.65;;;12.23;;
15216;SDS011;7711;46.634;14.318;2023-08-24T07:29:47;14.20;;;12.80;;
15216;SDS011;7711;46.634;14.318;2023-08-24T07:32:14;15.82;;;12.73;;
15216;SDS011;7711;46.634;14.318;2023-08-24T07:34:41;15.77;;;13.63;;
15216;SDS011;7711;46.634;14.318;2023-08-24T07:37:08;13.73;;;12.38;;
15216;SDS011;7711;46.634;14.318;2023-08-24T07:39:35;13.93;;;12.18;;
15216;SDS011;7711;46.634;14.318;2023-08-24T07:42:04;16.08;;;13.80;;
15216;SDS011;7711;46.634;14.318;2023-08-24T07:44:31;18.33;;;13.07;;
15216;SDS011;7711;46.634;14.318;2023-08-24T07:46:59;14.68;;;13.18;;
15216;SDS011;7711;46.634;14.318;2023-08-24T07:49:26;14.35;;;12.95;;
15216;SDS011;7711;46.634;14.318;2023-08-24T07:51:53;14.32;;;12.90;;
15216;SDS011;7711;46.634;14.318;2023-08-24T07:54:22;15.77;;;13.10;;
15216;SDS011;7711;46.634;14.318;2023-08-24T07:56:49;15.80;;;13.90;;
15216;SDS011;7711;46.634;14.318;2023-08-24T07:59:16;17.60;;;13.50;;
15216;SDS011;7711;46.634;14.318;2023-08-24T08:01:43;17.55;;;13.23;;
15216;SDS011;7711;46.634;14.318;2023-08-24T08:04:11;17.77;;;13.50;;
15216;SDS011;7711;46.634;14.318;2023-08-24T08:06:38;15.55;;;12.65;;
15216;SDS011;7711;46.634;14.318;2023-08-24T08:09:05;15.18;;;13.32;;
15216;SDS011;7711;46.634;14.318;2023-08-24T08:11:32;14.57;;;12.15;;
15216;SDS011;7711;46.634;14.318;2023-08-24T08:14:00;15.10;;;13.50;;
15216;SDS011;7711;46.634;14.318;2023-08-24T08:16:27;14.60;;;13.10;;
15216;SDS011;7711;46.634;14.318;2023-08-24T08:18:54;17.23;;;14.55;;
15216;SDS011;7711;46.634;14.318;2023-08-24T08:21:22;15.13;;;12.82;;
15216;SDS011;7711;46.634;14.318;2023-08-24T08:23:49;16.15;;;13.60;;
15216;SDS011;7711;46.634;14.318;2023-08-24T08:26:16;21.38;;;14.80;;
15216;SDS011;7711;46.634;14.318;2023-08-24T08:28:43;16.08;;;13.52;;
15216;SDS011;7711;46.634;14.318;2023-08-24T08:31:10;17.45;;;14.02;;
15216;SDS011;7711;46.634;14.318;2023-08-24T08:33:37;15.75;;;13.85;;
15216;SDS011;7711;46.634;14.318;2023-08-24T08:36:04;15.00;;;13.50;;
15216;SDS011;7711;46.634;14.318;2023-08-24T08:38:32;15.05;;;13.13;;
15216;SDS011;7711;46.634;14.318;2023-08-24T08:41:01;14.35;;;12.98;;
15216;SDS011;7711;46.634;14.318;2023-08-24T08:43:30;14.68;;;12.98;;
15216;SDS011;7711;46.634;14.318;2023-08-24T08:45:58;14.52;;;13.07;;
15216;SDS011;7711;46.634;14.318;2023-08-24T08:48:26;14.88;;;13.32;;
15216;SDS011;7711;46.634;14.318;2023-08-24T08:50:57;16.17;;;13.90;;
15216;SDS011;7711;46.634;14.318;2023-08-24T08:53:26;14.27;;;12.88;;
15216;SDS011;7711;46.634;14.318;2023-08-24T08:55:54;16.15;;;14.45;;
15216;SDS011;7711;46.634;14.318;2023-08-24T08:58:22;13.70;;;12.30;;
15216;SDS011;7711;46.634;14.318;2023-08-24T09:00:51;14.73;;;12.90;;
15216;SDS011;7711;46.634;14.318;2023-08-24T09:03:18;16.08;;;12.38;;
15216;SDS011;7711;46.634;14.318;2023-08-24T09:05:46;13.43;;;12.05;;
15216;SDS011;7711;46.634;14.318;2023-08-24T09:08:13;12.85;;;11.65;;
15216;SDS011;7711;46.634;14.318;2023-08-24T09:10:42;13.50;;;12.15;;
15216;SDS011;7711;46.634;14.318;2023-08-24T09:13:10;13.55;;;12.25;;
15216;SDS011;7711;46.634;14.318;2023-08-24T09:15:38;14.93;;;12.00;;
15216;SDS011;7711;46.634;14.318;2023-08-24T09:18:05;13.55;;;12.25;;
15216;SDS011;7711;46.634;14.318;2023-08-24T09:20:33;13.70;;;12.27;;
15216;SDS011;7711;46.634;14.318;2023-08-24T09:23:00;14.48;;;12.82;;
15216;SDS011;7711;46.634;14.318;2023-08-24T09:25:27;18.67;;;12.55;;
15216;SDS011;7711;46.634;14.318;2023-08-24T09:27:58;14.15;;;12.85;;
15216;SDS011;7711;46.634;14.318;2023-08-24T09:30:34;13.45;;;11.75;;
15216;SDS011;7711;46.634;14.318;2023-08-24T09:33:02;13.30;;;11.75;;
15216;SDS011;7711;46.634;14.318;2023-08-24T09:35:34;15.75;;;12.57;;
15216;SDS011;7711;46.634;14.318;2023-08-24T09:38:15;14.15;;;12.55;;
15216;SDS011;7711;46.634;14.318;2023-08-24T09:40:44;15.25;;;12.55;;
15216;SDS011;7711;46.634;14.318;2023-08-24T09:43:13;13.98;;;12.50;;
15216;SDS011;7711;46.634;14.318;2023-08-24T09:45:48;13.32;;;12.02;;
15216;SDS011;7711;46.634;14.318;2023-08-24T09:48:16;13.63;;;12.32;;
15216;SDS011;7711;46.634;14.318;2023-08-24T09:50:44;14.02;;;12.65;;
15216;SDS011;7711;46.634;14.318;2023-08-24T09:53:14;14.13;;;12.43;;
15216;SDS011;7711;46.634;14.318;2023-08-24T09:55:44;14.25;;;12.43;;
15216;SDS011;7711;46.634;14.318;2023-08-24T09:58:19;13.02;;;11.82;;
15216;SDS011;7711;46.634;14.318;2023-08-24T10:00:48;12.30;;;11.13;;
15216;SDS011;7711;46.634;14.318;2023-08-24T10:03:17;13.30;;;11.90;;
15216;SDS011;7711;46.634;14.318;2023-08-24T10:05:47;13.25;;;11.88;;
15216;SDS011;7711;46.634;14.318;2023-08-24T10:08:16;14.40;;;11.75;;
15216;SDS011;7711;46.634;14.318;2023-08-24T10:10:46;13.82;;;11.27;;
15216;SDS011;7711;46.634;14.318;2023-08-24T10:13:17;13.32;;;11.52;;
15216;SDS011;7711;46.634;14.318;2023-08-24T10:15:49;12.57;;;11.27;;
15216;SDS011;7711;46.634;14.318;2023-08-24T10:18:17;13.35;;;11.95;;
15216;SDS011;7711;46.634;14.318;2023-08-24T10:20:45;13.10;;;11.80;;
15216;SDS011;7711;46.634;14.318;2023-08-24T10:23:14;13.27;;;11.98;;
15216;SDS011;7711;46.634;14.318;2023-08-24T10:25:42;13.32;;;11.90;;
15216;SDS011;7711;46.634;14.318;2023-08-24T10:28:11;13.43;;;12.13;;
15216;SDS011;7711;46.634;14.318;2023-08-24T10:30:39;13.38;;;11.02;;
15216;SDS011;7711;46.634;14.318;2023-08-24T10:33:10;12.73;;;10.80;;
15216;SDS011;7711;46.634;14.318;2023-08-24T10:35:38;14.20;;;11.50;;
15216;SDS011;7711;46.634;14.318;2023-08-24T10:38:06;13.13;;;11.93;;
15216;SDS011;7711;46.634;14.318;2023-08-24T10:40:33;12.50;;;11.38;;
15216;SDS011;7711;46.634;14.318;2023-08-24T10:43:04;12.63;;;10.90;;
15216;SDS011;7711;46.634;14.318;2023-08-24T10:48:24;13.10;;;11.82;;
15216;SDS011;7711;46.634;14.318;2023-08-24T10:53:45;12.43;;;11.13;;
15216;SDS011;7711;46.634;14.318;2023-08-24T10:56:14;12.55;;;11.35;;
15216;SDS011;7711;46.634;14.318;2023-08-24T10:58:42;13.25;;;11.85;;
15216;SDS011;7711;46.634;14.318;2023-08-24T11:01:19;12.50;;;11.20;;
15216;SDS011;7711;46.634;14.318;2023-08-24T11:03:54;12.07;;;10.98;;
15216;SDS011;7711;46.634;14.318;2023-08-24T11:06:22;12.25;;;11.05;;
15216;SDS011;7711;46.634;14.318;2023-08-24T11:09:04;12.45;;;11.15;;
15216;SDS011;7711;46.634;14.318;2023-08-24T11:11:38;11.98;;;10.75;;
15216;SDS011;7711;46.634;14.318;2023-08-24T11:14:13;13.52;;;10.43;;
15216;SDS011;7711;46.634;14.318;2023-08-24T11:16:42;11.65;;;10.43;;
15216;SDS011;7711;46.634;14.318;2023-08-24T11:19:11;11.80;;;10.80;;
15216;SDS011;7711;46.634;14.318;2023-08-24T11:21:39;13.80;;;10.52;;
15216;SDS011;7711;46.634;14.318;2023-08-24T11:24:06;12.73;;;10.93;;
15216;SDS011;7711;46.634;14.318;2023-08-24T11:26:34;11.63;;;10.57;;
15216;SDS011;7711;46.634;14.318;2023-08-24T11:29:05;13.50;;;11.05;;
15216;SDS011;7711;46.634;14.318;2023-08-24T11:31:32;16.48;;;11.77;;
15216;SDS011;7711;46.634;14.318;2023-08-24T11:34:00;14.40;;;10.88;;
15216;SDS011;7711;46.634;14.318;2023-08-24T11:36:29;11.90;;;10.75;;
15216;SDS011;7711;46.634;14.318;2023-08-24T11:38:57;12.60;;;11.35;;
15216;SDS011;7711;46.634;14.318;2023-08-24T11:41:25;12.73;;;11.50;;
15216;SDS011;7711;46.634;14.318;2023-08-24T11:44:01;12.00;;;10.82;;
15216;SDS011;7711;46.634;14.318;2023-08-24T11:46:29;13.10;;;10.60;;
15216;SDS011;7711;46.634;14.318;2023-08-24T11:48:57;13.38;;;10.68;;
15216;SDS011;7711;46.634;14.318;2023-08-24T11:51:24;11.73;;;10.52;;
15216;SDS011;7711;46.634;14.318;2023-08-24T11:53:53;12.60;;;10.00;;
15216;SDS011;7711;46.634;14.318;2023-08-24T11:56:23;13.27;;;11.98;;
15216;SDS011;7711;46.634;14.318;2023-08-24T11:58:50;12.95;;;10.73;;
15216;SDS011;7711;46.634;14.318;2023-08-24T12:01:17;13.15;;;11.32;;
15216;SDS011;7711;46.634;14.318;2023-08-24T12:03:44;13.88;;;11.63;;
15216;SDS011;7711;46.634;14.318;2023-08-24T12:06:12;12.27;;;10.98;;
15216;SDS011;7711;46.634;14.318;2023-08-24T12:08:40;13.55;;;10.93;;
15216;SDS011;7711;46.634;14.318;2023-08-24T12:11:13;12.60;;;11.40;;
15216;SDS011;7711;46.634;14.318;2023-08-24T12:13:45;13.20;;;12.00;;
15216;SDS011;7711;46.634;14.318;2023-08-24T12:16:13;15.38;;;11.25;;
15216;SDS011;7711;46.634;14.318;2023-08-24T12:18:49;12.88;;;11.38;;
15216;SDS011;7711;46.634;14.318;2023-08-24T12:21:18;12.32;;;11.05;;
15216;SDS011;7711;46.634;14.318;2023-08-24T12:23:54;15.23;;;10.77;;
15216;SDS011;7711;46.634;14.318;2023-08-24T12:26:23;12.10;;;10.73;;
15216;SDS011;7711;46.634;14.318;2023-08-24T12:28:51;12.27;;;10.95;;
15216;SDS011;7711;46.634;14.318;2023-08-24T12:31:19;11.70;;;10.50;;
15216;SDS011;7711;46.634;14.318;2023-08-24T12:33:56;13.75;;;12.02;;
15216;SDS011;7711;46.634;14.318;2023-08-24T12:36:25;11.73;;;10.70;;
15216;SDS011;7711;46.634;14.318;2023-08-24T12:38:52;11.48;;;10.32;;
15216;SDS011;7711;46.634;14.318;2023-08-24T12:41:19;10.52;;;9.57;;
15216;SDS011;7711;46.634;14.318;2023-08-24T12:43:48;12.52;;;10.23;;
15216;SDS011;7711;46.634;14.318;2023-08-24T12:46:16;13.27;;;9.88;;
15216;SDS011;7711;46.634;14.318;2023-08-24T12:48:43;11.95;;;10.75;;
15216;SDS011;7711;46.634;14.318;2023-08-24T12:51:10;14.50;;;10.02;;
15216;SDS011;7711;46.634;14.318;2023-08-24T12:53:37;11.15;;;9.55;;
15216;SDS011;7711;46.634;14.318;2023-08-24T12:56:04;13.98;;;9.73;;
15216;SDS011;7711;46.634;14.318;2023-08-24T12:58:31;11.90;;;8.95;;
15216;SDS011;7711;46.634;14.318;2023-08-24T13:01:00;9.93;;;8.93;;
15216;SDS011;7711;46.634;14.318;2023-08-24T13:03:27;10.10;;;8.63;;
15216;SDS011;7711;46.634;14.318;2023-08-24T13:05:54;10.73;;;8.43;;
15216;SDS011;7711;46.634;14.318;2023-08-24T13:08:21;9.45;;;8.52;;
15216;SDS011;7711;46.634;14.318;2023-08-24T13:10:49;14.48;;;8.88;;
15216;SDS011;7711;46.634;14.318;2023-08-24T13:13:16;10.77;;;8.52;;
15216;SDS011;7711;46.634;14.318;2023-08-24T13:15:46;9.65;;;8.57;;
15216;SDS011;7711;46.634;14.318;2023-08-24T13:18:15;9.43;;;8.50;;
15216;SDS011;7711;46.634;14.318;2023-08-24T13:20:42;11.95;;;9.02;;
15216;SDS011;7711;46.634;14.318;2023-08-24T13:23:10;9.20;;;8.30;;
15216;SDS011;7711;46.634;14.318;2023-08-24T13:25:37;10.55;;;8.82;;
15216;SDS011;7711;46.634;14.318;2023-08-24T13:28:04;11.15;;;8.73;;
15216;SDS011;7711;46.634;14.318;2023-08-24T13:30:31;9.95;;;8.35;;
15216;SDS011;7711;46.634;14.318;2023-08-24T13:32:58;8.75;;;7.85;;
15216;SDS011;7711;46.634;14.318;2023-08-24T13:35:27;9.75;;;8.48;;
15216;SDS011;7711;46.634;14.318;2023-08-24T13:37:54;10.60;;;8.80;;
15216;SDS011;7711;46.634;14.318;2023-08-24T13:40:21;9.82;;;8.15;;
15216;SDS011;7711;46.634;14.318;2023-08-24T13:42:48;10.00;;;8.52;;
15216;SDS011;7711;46.634;14.318;2023-08-24T13:45:14;9.52;;;8.57;;
15216;SDS011;7711;46.634;14.318;2023-08-24T13:47:42;11.02;;;8.27;;
15216;SDS011;7711;46.634;14.318;2023-08-24T13:50:09;8.75;;;7.90;;
15216;SDS011;7711;46.634;14.318;2023-08-24T13:52:38;9.00;;;8.20;;
15216;SDS011;7711;46.634;14.318;2023-08-24T13:55:05;12.23;;;8.07;;
15216;SDS011;7711;46.634;14.318;2023-08-24T13:57:32;9.63;;;7.80;;
15216;SDS011;7711;46.634;14.318;2023-08-24T13:59:59;8.85;;;7.93;;
15216;SDS011;7711;46.634;14.318;2023-08-24T14:02:29;8.82;;;7.93;;
15216;SDS011;7711;46.634;14.318;2023-08-24T14:04:56;8.85;;;8.05;;
15216;SDS011;7711;46.634;14.318;2023-08-24T14:07:23;8.75;;;7.95;;
15216;SDS011;7711;46.634;14.318;2023-08-24T14:09:51;8.75;;;7.82;;
15216;SDS011;7711;46.634;14.318;2023-08-24T14:12:18;9.18;;;8.02;;
15216;SDS011;7711;46.634;14.318;2023-08-24T14:14:45;10.60;;;8.18;;
15216;SDS011;7711;46.634;14.318;2023-08-24T14:17:12;9.70;;;7.97;;
15216;SDS011;7711;46.634;14.318;2023-08-24T14:19:39;9.32;;;7.97;;
15216;SDS011;7711;46.634;14.318;2023-08-24T14:22:05;9.48;;;8.52;;
15216;SDS011;7711;46.634;14.318;2023-08-24T14:24:33;9.15;;;8.25;;
15216;SDS011;7711;46.634;14.318;2023-08-24T14:27:01;8.82;;;8.02;;
15216;SDS011;7711;46.634;14.318;2023-08-24T14:29:28;11.70;;;8.05;;
15216;SDS011;7711;46.634;14.318;2023-08-24T14:31:55;10.07;;;8.23;;
15216;SDS011;7711;46.634;14.318;2023-08-24T14:34:22;8.90;;;8.10;;